Time;durP1;ratioP1;P1;durP2;ratioP2;P2;SDS_P1;SDS_P2;PMS_P1;PMS_P2;Temp;Humidity;BMP_temperature;BMP_pressure;BME280_temperature;BME280_humidity;BME280_pressure;Samples;Min_cycle;Max_cycle;Signal;HPM_P1;HPM_P2
2023/10/29 00:02:02;;;;;;;2.25;0.70;;;24.00;99.90;;;;;;5075190;28;20197;-79
2023/10/29 00:04:35;;;;;;;1.23;0.73;;;24.10;99.90;;;;;;5080042;28;20199;-78
2023/10/29 00:07:06;;;;;;;2.92;1.00;;;24.20;99.90;;;;;;5076689;28;20200;-78
2023/10/29 00:09:39;;;;;;;2.28;0.70;;;24.30;99.90;;;;;;5074738;28;20184;-79
2023/10/29 00:12:10;;;;;;;1.77;0.70;;;24.40;99.90;;;;;;5075234;28;20217;-78
2023/10/29 00:14:41;;;;;;;2.17;0.90;;;24.40;99.90;;;;;;5074939;28;20284;-79
2023/10/29 00:17:12;;;;;;;3.97;0.90;;;24.50;99.90;;;;;;5075147;28;20196;-79
2023/10/29 00:19:42;;;;;;;1.67;0.80;;;24.60;99.90;;;;;;5073020;28;20574;-79
2023/10/29 00:22:16;;;;;;;1.65;0.80;;;24.60;99.90;;;;;;5078265;28;20204;-78
2023/10/29 00:24:49;;;;;;;1.52;0.75;;;24.60;99.90;;;;;;5074856;28;20226;-79
2023/10/29 00:27:21;;;;;;;2.25;0.70;;;24.70;99.90;;;;;;5072986;28;20697;-79
2023/10/29 00:29:52;;;;;;;1.73;0.80;;;24.80;99.90;;;;;;5074120;28;20200;-79
2023/10/29 00:32:23;;;;;;;3.50;0.90;;;25.00;99.90;;;;;;5074199;28;20247;-78
2023/10/29 00:34:53;;;;;;;1.67;0.75;;;25.00;99.90;;;;;;5074709;28;20211;-78
2023/10/29 00:37:24;;;;;;;1.25;0.63;;;25.20;99.90;;;;;;5074191;28;20201;-79
2023/10/29 00:39:57;;;;;;;3.47;1.00;;;25.30;99.90;;;;;;5074703;28;20264;-78
2023/10/29 00:42:28;;;;;;;1.08;0.60;;;25.40;99.90;;;;;;5093714;28;20232;-79
2023/10/29 00:44:59;;;;;;;2.95;0.77;;;25.60;99.90;;;;;;5091526;28;20225;-79
2023/10/29 00:47:30;;;;;;;2.05;0.60;;;25.70;99.90;;;;;;5093996;28;20257;-79
2023/10/29 00:50:01;;;;;;;1.23;0.60;;;25.60;99.90;;;;;;5094827;28;20195;-78
2023/10/29 00:52:32;;;;;;;0.93;0.60;;;25.60;99.90;;;;;;5092916;28;20679;-78
2023/10/29 00:55:06;;;;;;;0.90;0.50;;;25.70;99.90;;;;;;5092013;28;20203;-79
2023/10/29 00:57:37;;;;;;;1.35;0.63;;;25.70;99.90;;;;;;5094696;28;20191;-80
2023/10/29 01:00:09;;;;;;;2.60;0.60;;;25.80;99.90;;;;;;5076740;28;20237;-80
2023/10/29 01:02:40;;;;;;;1.42;0.60;;;25.90;99.90;;;;;;5073982;28;20197;-80
2023/10/29 01:05:11;;;;;;;1.20;0.63;;;26.10;99.90;;;;;;5073950;28;20196;-80
2023/10/29 01:07:42;;;;;;;0.88;0.63;;;26.20;99.90;;;;;;5074150;28;20185;-80
2023/10/29 01:10:15;;;;;;;1.80;0.70;;;26.40;99.90;;;;;;5073114;28;20219;-81
2023/10/29 01:12:47;;;;;;;1.17;0.70;;;26.50;99.90;;;;;;5074064;28;20256;-80
2023/10/29 01:15:18;;;;;;;1.13;0.52;;;26.40;99.90;;;;;;5075058;28;20716;-79
2023/10/29 01:17:49;;;;;;;2.10;0.65;;;26.20;99.90;;;;;;5080685;28;20208;-80
2023/10/29 01:20:20;;;;;;;1.73;0.63;;;26.30;99.90;;;;;;5092442;28;20566;-80
2023/10/29 01:22:51;;;;;;;1.50;0.73;;;26.30;99.90;;;;;;5089460;28;20203;-79
2023/10/29 01:25:24;;;;;;;2.75;0.60;;;26.40;99.90;;;;;;5078145;28;20293;-80
2023/10/29 01:27:55;;;;;;;1.65;0.57;;;26.40;99.90;;;;;;5083904;28;20550;-79
2023/10/29 01:30:26;;;;;;;3.08;0.60;;;26.40;99.90;;;;;;5081927;28;20208;-80
2023/10/29 01:32:56;;;;;;;2.47;0.70;;;26.30;99.90;;;;;;5081898;28;20555;-82
2023/10/29 01:35:27;;;;;;;1.63;0.82;;;26.50;99.90;;;;;;5084491;28;20180;-79
2023/10/29 01:37:58;;;;;;;2.83;0.60;;;26.70;99.90;;;;;;5084248;28;20276;-79
2023/10/29 01:40:31;;;;;;;1.38;0.70;;;26.90;99.90;;;;;;5089384;28;20207;-79
2023/10/29 01:43:01;;;;;;;2.00;0.80;;;26.90;99.90;;;;;;5087467;28;20212;-79
2023/10/29 01:45:36;;;;;;;2.25;0.80;;;27.10;99.90;;;;;;5080075;28;20204;-81
2023/10/29 01:48:07;;;;;;;2.35;0.75;;;26.80;99.90;;;;;;5082353;28;20710;-79
2023/10/29 01:50:39;;;;;;;3.15;0.90;;;26.80;99.90;;;;;;5088656;28;20199;-80
2023/10/29 01:53:10;;;;;;;1.73;0.75;;;26.90;99.90;;;;;;5086357;28;20674;-79
2023/10/29 01:55:42;;;;;;;2.67;0.80;;;26.60;99.90;;;;;;5086373;28;20559;-79
2023/10/29 01:58:13;;;;;;;2.22;0.73;;;26.70;99.90;;;;;;5084808;28;20648;-77
2023/10/29 02:00:45;;;;;;;5.13;1.05;;;26.60;99.90;;;;;;5088312;28;20251;-79
2023/10/29 02:03:16;;;;;;;2.88;0.70;;;26.70;99.90;;;;;;5081732;28;20214;-79
2023/10/29 02:05:46;;;;;;;2.72;1.00;;;26.70;99.90;;;;;;5084012;28;20196;-78
2023/10/29 02:08:23;;;;;;;3.92;0.73;;;26.70;99.90;;;;;;5087114;28;20181;-79
2023/10/29 02:10:56;;;;;;;3.13;0.90;;;26.90;99.90;;;;;;5083310;28;20191;-77
2023/10/29 02:13:26;;;;;;;3.03;0.85;;;26.70;99.90;;;;;;5104547;28;20180;-80
2023/10/29 02:15:57;;;;;;;2.33;0.70;;;26.50;99.90;;;;;;5092181;28;20196;-79
2023/10/29 02:18:28;;;;;;;3.25;0.90;;;26.20;99.90;;;;;;5109655;28;20664;-79
2023/10/29 02:20:59;;;;;;;2.95;0.80;;;26.20;99.90;;;;;;5087685;28;20192;-79
2023/10/29 02:23:31;;;;;;;5.40;0.75;;;26.40;99.90;;;;;;5090826;28;20184;-78
2023/10/29 02:26:02;;;;;;;1.63;0.80;;;26.00;99.90;;;;;;5109501;28;20219;-78
2023/10/29 02:28:33;;;;;;;2.83;0.80;;;25.80;99.90;;;;;;5094143;28;20200;-80
2023/10/29 02:31:04;;;;;;;3.95;0.70;;;25.90;99.90;;;;;;5102225;28;20209;-80
2023/10/29 02:33:35;;;;;;;5.25;0.70;;;26.10;99.90;;;;;;5072960;28;20284;-80
2023/10/29 02:36:06;;;;;;;2.70;0.80;;;26.20;99.90;;;;;;5087261;28;20207;-79
2023/10/29 02:38:39;;;;;;;4.00;0.90;;;25.90;99.90;;;;;;5088416;28;20204;-78
2023/10/29 02:41:10;;;;;;;1.60;0.75;;;25.60;99.90;;;;;;5084546;28;20201;-79
2023/10/29 02:43:43;;;;;;;3.72;0.80;;;25.60;99.90;;;;;;5079429;28;20224;-79
2023/10/29 02:46:13;;;;;;;2.67;1.00;;;25.50;99.90;;;;;;5079345;28;20189;-78
2023/10/29 02:48:45;;;;;;;3.95;1.02;;;25.40;99.90;;;;;;5073501;28;20204;-79
2023/10/29 02:51:16;;;;;;;3.75;0.93;;;25.40;99.90;;;;;;5091332;28;20299;-81
2023/10/29 02:53:48;;;;;;;3.20;0.90;;;25.60;99.90;;;;;;5107894;28;20200;-79
2023/10/29 02:56:19;;;;;;;3.83;0.90;;;25.70;99.90;;;;;;5085123;28;20212;-79
2023/10/29 02:58:50;;;;;;;1.55;0.88;;;25.80;99.90;;;;;;5084212;28;20196;-79
2023/10/29 03:01:21;;;;;;;3.08;0.98;;;25.70;99.90;;;;;;5079720;28;20197;-77
2023/10/29 03:03:51;;;;;;;4.25;0.80;;;25.70;99.90;;;;;;5083754;28;20211;-79
2023/10/29 03:06:22;;;;;;;3.08;1.08;;;25.70;99.90;;;;;;5077839;28;20716;-79
2023/10/29 03:08:55;;;;;;;5.45;1.00;;;25.70;99.90;;;;;;5095337;28;20270;-79
2023/10/29 03:11:26;;;;;;;6.53;0.77;;;25.70;99.90;;;;;;5089495;28;20267;-79
2023/10/29 03:13:57;;;;;;;2.75;1.08;;;25.80;99.90;;;;;;5089901;28;20206;-80
2023/10/29 03:16:28;;;;;;;3.05;0.90;;;25.80;99.90;;;;;;5088650;28;20273;-80
2023/10/29 03:18:59;;;;;;;3.03;0.80;;;25.70;99.90;;;;;;5087555;28;20695;-80
2023/10/29 03:21:29;;;;;;;3.80;1.23;;;25.50;99.90;;;;;;5091017;28;20267;-80
2023/10/29 03:24:02;;;;;;;2.83;0.77;;;25.60;99.90;;;;;;5097080;28;20196;-79
2023/10/29 03:26:33;;;;;;;3.88;0.77;;;25.60;99.90;;;;;;5089413;28;20185;-79
2023/10/29 03:29:04;;;;;;;4.10;1.08;;;25.70;99.90;;;;;;5088000;28;20189;-80
2023/10/29 03:31:35;;;;;;;5.53;1.00;;;25.60;99.90;;;;;;5090917;28;20212;-79
2023/10/29 03:34:07;;;;;;;4.22;0.95;;;25.50;99.90;;;;;;5081457;28;20283;-80
2023/10/29 03:36:38;;;;;;;2.28;0.73;;;25.30;99.90;;;;;;5085557;28;20253;-79
2023/10/29 03:39:11;;;;;;;2.70;0.80;;;25.20;99.90;;;;;;5088559;28;20196;-79
2023/10/29 03:41:42;;;;;;;2.28;0.70;;;25.20;99.90;;;;;;5090904;28;20334;-79
2023/10/29 03:44:12;;;;;;;3.58;0.80;;;25.20;99.90;;;;;;5089074;28;20208;-77
2023/10/29 03:46:44;;;;;;;4.40;0.90;;;25.20;99.90;;;;;;5089491;28;20274;-78
2023/10/29 03:49:16;;;;;;;2.28;0.88;;;25.30;99.90;;;;;;5089335;28;20185;-78
2023/10/29 03:51:48;;;;;;;3.92;0.90;;;25.20;99.90;;;;;;5089351;28;20297;-78
2023/10/29 03:54:21;;;;;;;4.32;1.00;;;25.20;99.90;;;;;;5087021;28;20268;-81
2023/10/29 03:56:51;;;;;;;3.25;0.73;;;25.00;99.90;;;;;;5091427;28;20279;-79
2023/10/29 03:59:22;;;;;;;1.75;0.70;;;25.10;99.90;;;;;;5099345;28;20298;-79
2023/10/29 04:01:53;;;;;;;2.95;0.63;;;25.00;99.90;;;;;;5114154;28;20191;-78
2023/10/29 04:04:24;;;;;;;2.05;0.70;;;25.00;99.90;;;;;;5115636;28;20655;-78
2023/10/29 04:06:54;;;;;;;2.72;0.70;;;24.90;99.90;;;;;;5116028;27;20230;-77
2023/10/29 04:09:27;;;;;;;1.20;0.60;;;25.00;99.90;;;;;;5115455;28;20195;-77
2023/10/29 04:11:59;;;;;;;1.88;0.63;;;25.00;99.90;;;;;;5113599;28;20268;-78
2023/10/29 04:14:29;;;;;;;2.10;0.57;;;25.00;99.90;;;;;;5113888;28;20641;-77
2023/10/29 04:17:00;;;;;;;2.05;0.60;;;25.00;99.90;;;;;;5113813;28;20194;-78
2023/10/29 04:19:31;;;;;;;3.47;0.60;;;25.00;99.90;;;;;;5112806;28;20202;-80
2023/10/29 04:22:02;;;;;;;0.88;0.60;;;25.10;99.90;;;;;;5113577;28;20234;-78
2023/10/29 04:24:35;;;;;;;2.97;0.70;;;25.10;99.90;;;;;;5113637;28;20798;-79
2023/10/29 04:27:06;;;;;;;3.42;0.70;;;25.10;99.90;;;;;;5114264;28;20194;-77
2023/10/29 04:29:37;;;;;;;2.97;0.60;;;25.00;99.90;;;;;;5115618;28;20198;-79
2023/10/29 04:32:08;;;;;;;2.42;0.60;;;25.00;99.90;;;;;;5103217;28;20213;-79
2023/10/29 04:34:39;;;;;;;1.98;0.60;;;25.20;99.90;;;;;;5095097;28;20288;-79
2023/10/29 04:37:10;;;;;;;1.65;0.60;;;25.20;99.90;;;;;;5095075;28;20193;-76
2023/10/29 04:39:43;;;;;;;3.53;0.70;;;25.20;99.90;;;;;;5094904;28;20188;-78
2023/10/29 04:42:14;;;;;;;1.83;0.70;;;25.20;99.90;;;;;;5074529;28;20238;-78
2023/10/29 04:44:45;;;;;;;5.88;0.70;;;25.10;99.90;;;;;;5074636;28;20207;-77
2023/10/29 04:47:18;;;;;;;1.92;0.45;;;25.10;99.90;;;;;;5074875;28;20604;-78
2023/10/29 04:49:49;;;;;;;1.88;0.57;;;25.10;99.90;;;;;;5074557;28;20637;-78
2023/10/29 04:52:20;;;;;;;3.13;0.70;;;25.00;99.90;;;;;;5074676;28;20305;-80
2023/10/29 04:54:53;;;;;;;3.55;0.80;;;24.90;99.90;;;;;;5077050;28;20236;-78
2023/10/29 04:57:24;;;;;;;2.30;0.50;;;24.80;99.90;;;;;;5074341;28;20195;-80
2023/10/29 04:59:57;;;;;;;2.50;0.65;;;24.70;99.90;;;;;;5074216;28;20264;-79
2023/10/29 05:02:29;;;;;;;3.53;0.60;;;24.70;99.90;;;;;;5074276;28;20200;-77
2023/10/29 05:04:59;;;;;;;3.72;0.60;;;24.60;99.90;;;;;;5074366;28;20200;-78
2023/10/29 05:07:32;;;;;;;1.88;0.57;;;24.70;99.90;;;;;;5074277;28;20189;-78
2023/10/29 05:10:13;;;;;;;1.10;0.60;;;24.70;99.90;;;;;;5073963;28;20614;-78
2023/10/29 05:12:44;;;;;;;3.17;0.70;;;24.70;99.90;;;;;;5073147;28;20213;-78
2023/10/29 05:15:14;;;;;;;3.05;0.52;;;24.80;99.90;;;;;;5074123;28;20188;-78
2023/10/29 05:17:45;;;;;;;4.18;0.80;;;24.60;99.90;;;;;;5074097;28;20243;-80
2023/10/29 05:20:16;;;;;;;1.60;0.50;;;24.40;99.90;;;;;;5074052;28;20196;-77
2023/10/29 05:22:47;;;;;;;2.03;0.82;;;24.40;99.90;;;;;;5073946;28;20575;-79
2023/10/29 05:25:20;;;;;;;2.53;0.63;;;24.40;99.90;;;;;;5073696;28;20189;-78
2023/10/29 05:27:54;;;;;;;3.17;0.60;;;24.40;99.90;;;;;;5073935;28;20561;-79
2023/10/29 05:30:25;;;;;;;2.15;0.70;;;24.30;99.90;;;;;;5073794;28;20222;-78
2023/10/29 05:32:56;;;;;;;3.22;0.80;;;24.20;99.90;;;;;;5073655;28;20224;-78
2023/10/29 05:35:27;;;;;;;1.80;0.55;;;24.10;99.90;;;;;;5073738;28;20619;-78
2023/10/29 05:37:57;;;;;;;1.40;0.52;;;24.00;99.90;;;;;;5073523;28;20189;-78
2023/10/29 05:40:30;;;;;;;2.65;0.50;;;23.90;99.90;;;;;;5076801;28;20202;-77
2023/10/29 05:43:01;;;;;;;1.85;0.50;;;23.80;99.90;;;;;;5080990;28;20277;-79
2023/10/29 05:45:32;;;;;;;2.00;0.60;;;23.70;99.90;;;;;;5087542;28;20199;-77
2023/10/29 05:48:03;;;;;;;3.20;0.70;;;23.60;99.90;;;;;;5080494;28;20237;-78
2023/10/29 05:50:33;;;;;;;2.38;0.60;;;23.60;99.90;;;;;;5075610;28;20216;-77
2023/10/29 05:53:04;;;;;;;4.68;0.80;;;23.60;99.90;;;;;;5075957;28;20227;-79
2023/10/29 05:55:39;;;;;;;3.83;0.63;;;23.60;99.90;;;;;;5076686;28;20196;-77
2023/10/29 05:58:10;;;;;;;3.15;0.70;;;23.70;99.90;;;;;;5071082;28;20246;-79
2023/10/29 06:00:43;;;;;;;3.47;0.63;;;23.90;99.90;;;;;;5085111;28;20228;-78
2023/10/29 06:03:14;;;;;;;2.47;0.60;;;23.80;99.90;;;;;;5082733;28;20284;-78
2023/10/29 06:05:46;;;;;;;2.97;1.27;;;23.70;99.90;;;;;;5080607;28;20193;-80
2023/10/29 06:08:16;;;;;;;2.22;0.60;;;23.50;99.90;;;;;;5071230;28;20196;-79
2023/10/29 06:10:49;;;;;;;2.72;0.50;;;23.30;99.90;;;;;;5075847;28;20199;-80
2023/10/29 06:13:20;;;;;;;1.98;0.60;;;23.20;99.90;;;;;;5070250;28;20304;-80
2023/10/29 06:15:51;;;;;;;6.28;1.45;;;23.30;99.90;;;;;;5074012;28;20195;-80
2023/10/29 06:18:21;;;;;;;4.15;0.70;;;23.30;99.90;;;;;;5076545;28;20203;-78
2023/10/29 06:20:56;;;;;;;2.90;0.98;;;23.30;99.90;;;;;;5075522;28;20566;-78
2023/10/29 06:23:27;;;;;;;2.25;0.63;;;23.30;99.90;;;;;;5076453;28;20558;-79
2023/10/29 06:26:00;;;;;;;2.90;0.68;;;23.30;99.90;;;;;;5078418;28;20193;-78
2023/10/29 06:28:31;;;;;;;3.92;0.70;;;23.20;99.90;;;;;;5077088;28;20700;-82
2023/10/29 06:31:02;;;;;;;1.58;0.52;;;23.00;99.90;;;;;;5085910;28;20283;-81
2023/10/29 06:33:33;;;;;;;4.80;0.60;;;23.00;99.90;;;;;;5086021;28;20291;-80
2023/10/29 06:36:05;;;;;;;3.55;0.70;;;22.90;99.90;;;;;;5085078;28;20185;-79
2023/10/29 06:38:36;;;;;;;2.10;0.70;;;22.80;99.90;;;;;;5076976;28;20280;-82
2023/10/29 06:41:09;;;;;;;2.10;0.80;;;22.70;99.90;;;;;;5077074;28;20569;-81
2023/10/29 06:43:40;;;;;;;6.25;0.77;;;22.60;99.90;;;;;;5088188;28;20241;-81
2023/10/29 06:46:10;;;;;;;5.55;0.70;;;22.60;99.90;;;;;;5087369;28;20585;-82
2023/10/29 06:48:42;;;;;;;2.17;0.55;;;22.50;99.90;;;;;;5087895;28;20561;-81
2023/10/29 06:51:14;;;;;;;2.70;0.95;;;22.50;99.90;;;;;;5086474;28;20201;-81
2023/10/29 06:53:44;;;;;;;3.22;0.70;;;22.50;99.90;;;;;;5083878;28;20232;-78
2023/10/29 06:56:17;;;;;;;4.07;0.80;;;22.50;99.90;;;;;;5077254;28;20287;-83
2023/10/29 06:58:48;;;;;;;4.60;1.00;;;22.60;99.90;;;;;;5081059;28;20301;-77
2023/10/29 07:01:19;;;;;;;4.03;1.00;;;22.50;99.90;;;;;;5086021;28;20215;-80
2023/10/29 07:03:50;;;;;;;5.60;0.80;;;22.40;99.90;;;;;;5081959;28;20304;-80
2023/10/29 07:06:20;;;;;;;5.50;1.30;;;22.40;99.90;;;;;;5082339;28;20622;-79
2023/10/29 07:08:51;;;;;;;4.45;1.00;;;22.30;99.90;;;;;;5079968;28;20284;-80
2023/10/29 07:11:25;;;;;;;2.50;0.70;;;22.10;99.90;;;;;;5084476;28;20318;-81
2023/10/29 07:13:56;;;;;;;4.28;1.10;;;22.10;99.90;;;;;;5080211;28;20224;-79
2023/10/29 07:16:27;;;;;;;3.53;0.82;;;22.00;99.90;;;;;;5084413;28;20223;-79
2023/10/29 07:18:57;;;;;;;3.38;0.82;;;21.90;99.90;;;;;;5085803;28;20200;-79
2023/10/29 07:21:28;;;;;;;5.53;1.00;;;21.80;99.90;;;;;;5085141;28;20285;-79
2023/10/29 07:23:59;;;;;;;4.45;0.80;;;21.70;99.90;;;;;;5082658;28;20180;-79
2023/10/29 07:26:32;;;;;;;8.32;0.93;;;21.70;99.90;;;;;;5084022;28;20191;-79
2023/10/29 07:29:02;;;;;;;4.80;1.20;;;21.60;99.90;;;;;;5084594;28;20186;-82
2023/10/29 07:31:33;;;;;;;5.40;0.77;;;21.50;99.90;;;;;;5081798;28;20207;-79
2023/10/29 07:34:04;;;;;;;4.40;0.93;;;21.40;99.90;;;;;;5084908;28;20218;-79
2023/10/29 07:36:35;;;;;;;5.63;0.80;;;21.30;99.90;;;;;;5084369;28;20193;-81
2023/10/29 07:39:06;;;;;;;4.93;1.00;;;21.30;99.90;;;;;;5078224;28;20222;-79
2023/10/29 07:41:38;;;;;;;5.72;1.10;;;21.20;99.90;;;;;;5080879;28;20242;-82
2023/10/29 07:44:09;;;;;;;7.63;1.17;;;21.20;99.90;;;;;;5086861;28;20637;-78
2023/10/29 07:46:40;;;;;;;5.05;1.00;;;21.10;99.90;;;;;;5093543;28;20193;-79
2023/10/29 07:49:11;;;;;;;4.80;1.27;;;21.10;99.90;;;;;;5088846;28;20661;-79
2023/10/29 07:51:42;;;;;;;4.53;1.05;;;21.00;99.90;;;;;;5081157;28;20571;-80
2023/10/29 07:54:12;;;;;;;5.43;1.00;;;21.10;99.90;;;;;;5094125;28;20226;-81
2023/10/29 07:56:45;;;;;;;5.45;1.20;;;21.00;99.90;;;;;;5094804;28;20670;-80
2023/10/29 07:59:16;;;;;;;6.70;0.93;;;21.00;99.90;;;;;;5094139;28;20311;-80
2023/10/29 08:01:47;;;;;;;4.57;1.00;;;21.00;99.90;;;;;;5094593;28;20222;-79
2023/10/29 08:04:18;;;;;;;3.53;0.90;;;20.90;99.90;;;;;;5095646;28;20204;-82
2023/10/29 08:06:48;;;;;;;4.72;0.80;;;20.80;99.90;;;;;;5079218;28;20197;-79
2023/10/29 08:09:19;;;;;;;7.63;1.15;;;20.70;99.90;;;;;;5072993;28;20205;-81
2023/10/29 08:11:52;;;;;;;6.10;1.17;;;20.70;99.90;;;;;;5081253;28;20209;-80
2023/10/29 08:14:23;;;;;;;3.83;0.98;;;20.60;99.90;;;;;;5084215;28;20212;-83
2023/10/29 08:16:53;;;;;;;4.72;1.17;;;20.50;99.90;;;;;;5082732;28;20192;-80
2023/10/29 08:19:26;;;;;;;5.35;1.00;;;20.40;99.90;;;;;;5079318;28;20197;-81
2023/10/29 08:21:57;;;;;;;4.07;0.90;;;20.40;99.90;;;;;;5079480;28;20197;-80
2023/10/29 08:24:28;;;;;;;2.50;0.88;;;20.40;99.90;;;;;;5080919;28;20193;-81
2023/10/29 08:27:01;;;;;;;4.57;0.80;;;20.30;99.90;;;;;;5073951;28;20197;-78
2023/10/29 08:29:31;;;;;;;5.88;0.90;;;20.30;99.90;;;;;;5085550;28;20230;-81
2023/10/29 08:32:02;;;;;;;6.07;1.08;;;20.30;99.90;;;;;;5077499;28;20224;-80
2023/10/29 08:34:33;;;;;;;4.28;0.80;;;20.30;99.90;;;;;;5079882;28;20684;-81
2023/10/29 08:37:04;;;;;;;5.50;0.98;;;20.20;99.90;;;;;;5076810;28;20203;-80
2023/10/29 08:39:36;;;;;;;7.15;0.82;;;20.20;99.90;;;;;;5093895;28;20199;-77
2023/10/29 08:42:09;;;;;;;5.82;0.82;;;20.10;99.90;;;;;;5082304;28;20215;-77
2023/10/29 08:44:39;;;;;;;7.75;1.10;;;20.10;99.90;;;;;;5084419;28;20212;-80
2023/10/29 08:47:10;;;;;;;7.20;0.98;;;20.10;99.90;;;;;;5088856;28;20207;-80
2023/10/29 08:49:41;;;;;;;4.57;0.88;;;20.00;99.90;;;;;;5091141;28;20242;-77
2023/10/29 08:52:13;;;;;;;4.95;0.93;;;20.00;99.90;;;;;;5072605;28;20188;-79
2023/10/29 08:54:44;;;;;;;4.45;0.95;;;20.00;99.90;;;;;;5081231;28;20660;-78
2023/10/29 08:57:18;;;;;;;4.85;1.10;;;19.90;99.90;;;;;;5081165;28;20193;-79
2023/10/29 08:59:49;;;;;;;8.30;1.52;;;19.90;99.90;;;;;;5085674;28;20315;-78
2023/10/29 09:02:20;;;;;;;7.13;1.13;;;19.90;99.90;;;;;;5080936;28;20196;-78
2023/10/29 09:04:56;;;;;;;7.75;1.10;;;19.90;99.90;;;;;;5082402;28;20201;-80
2023/10/29 09:07:27;;;;;;;4.30;0.85;;;19.80;99.90;;;;;;5092771;28;20231;-80
2023/10/29 09:09:58;;;;;;;4.75;1.10;;;19.80;99.90;;;;;;5082287;28;20199;-79
2023/10/29 09:12:31;;;;;;;5.90;1.00;;;19.80;99.90;;;;;;5080110;28;20210;-79
2023/10/29 09:15:02;;;;;;;6.03;0.90;;;19.80;99.90;;;;;;5081156;28;20227;-80
2023/10/29 09:17:32;;;;;;;4.63;0.90;;;19.80;99.90;;;;;;5081934;28;20660;-78
2023/10/29 09:20:03;;;;;;;5.85;0.73;;;19.70;99.90;;;;;;5091155;28;20202;-79
2023/10/29 09:22:34;;;;;;;3.17;0.88;;;19.70;99.90;;;;;;5090271;28;20246;-80
2023/10/29 09:25:05;;;;;;;6.70;1.10;;;19.70;99.90;;;;;;5090316;28;20208;-80
2023/10/29 09:27:38;;;;;;;7.82;0.98;;;19.70;99.90;;;;;;5086681;28;20196;-79
2023/10/29 09:30:10;;;;;;;5.55;0.90;;;19.70;99.90;;;;;;5076076;28;20227;-77
2023/10/29 09:32:41;;;;;;;4.82;0.90;;;19.60;99.90;;;;;;5078302;28;20668;-80
2023/10/29 09:35:12;;;;;;;6.50;0.98;;;19.60;99.90;;;;;;5080205;28;20216;-79
2023/10/29 09:37:43;;;;;;;6.85;0.90;;;19.60;99.90;;;;;;5091860;28;20192;-78
2023/10/29 09:40:15;;;;;;;8.10;0.90;;;19.60;99.90;;;;;;5082308;28;20225;-80
2023/10/29 09:42:55;;;;;;;2.65;0.80;;;19.60;99.90;;;;;;5076716;28;20236;-78
2023/10/29 09:45:27;;;;;;;2.53;0.90;;;19.60;99.90;;;;;;5074604;28;20200;-79
2023/10/29 09:47:59;;;;;;;3.67;0.88;;;19.60;99.90;;;;;;5080369;28;20644;-79
2023/10/29 09:50:30;;;;;;;4.68;1.00;;;19.60;99.90;;;;;;5082697;28;20197;-78
2023/10/29 09:53:03;;;;;;;3.90;0.80;;;19.60;99.90;;;;;;5092379;28;20724;-80
2023/10/29 09:55:36;;;;;;;5.78;1.00;;;19.60;99.90;;;;;;5079419;28;20197;-78
2023/10/29 09:58:09;;;;;;;4.88;0.80;;;19.50;99.90;;;;;;5077663;28;20203;-83
2023/10/29 10:00:40;;;;;;;2.97;0.70;;;19.50;99.90;;;;;;5083113;28;20228;-81
2023/10/29 10:03:10;;;;;;;7.63;1.15;;;19.50;99.90;;;;;;5076496;28;20207;-78
2023/10/29 10:05:43;;;;;;;7.60;0.90;;;19.50;99.90;;;;;;5077347;28;20201;-78
2023/10/29 10:08:14;;;;;;;4.03;1.20;;;19.40;99.90;;;;;;5076319;28;20279;-78
2023/10/29 10:10:47;;;;;;;2.97;0.70;;;19.40;99.90;;;;;;5077689;28;20207;-79
2023/10/29 10:13:19;;;;;;;5.47;1.00;;;19.40;99.90;;;;;;5082740;28;20660;-79
2023/10/29 10:15:51;;;;;;;4.63;0.90;;;19.40;99.90;;;;;;5071887;28;20201;-78
2023/10/29 10:18:22;;;;;;;2.92;0.68;;;19.40;99.90;;;;;;5077839;28;20204;-77
2023/10/29 10:21:00;;;;;;;5.13;0.93;;;19.40;99.90;;;;;;5075677;28;20208;-78
2023/10/29 10:23:48;;;;;;;6.18;0.82;;;19.30;99.90;;;;;;5077663;28;20195;-78
2023/10/29 10:26:20;;;;;;;4.50;0.70;;;19.30;99.90;;;;;;5081927;28;20199;-77
2023/10/29 10:29:00;;;;;;;4.38;1.00;;;19.30;99.90;;;;;;5087024;28;20193;-77
2023/10/29 10:31:31;;;;;;;6.82;0.90;;;19.30;99.90;;;;;;5078696;28;20189;-77
2023/10/29 10:34:16;;;;;;;6.45;0.98;;;19.30;99.90;;;;;;5079835;28;20254;-80
2023/10/29 10:36:48;;;;;;;2.55;0.80;;;19.30;99.90;;;;;;5076812;28;20201;-78
2023/10/29 10:39:25;;;;;;;5.05;0.75;;;19.30;99.90;;;;;;5074104;28;20580;-78
2023/10/29 10:41:56;;;;;;;6.10;0.95;;;19.30;99.90;;;;;;5083325;28;20672;-81
2023/10/29 10:44:30;;;;;;;6.28;1.83;;;19.30;99.90;;;;;;5079801;28;20281;-79
2023/10/29 10:47:03;;;;;;;6.07;1.27;;;19.20;99.90;;;;;;5077584;28;20265;-79
2023/10/29 10:49:34;;;;;;;5.78;1.13;;;19.20;99.90;;;;;;5080144;28;20200;-80
2023/10/29 10:52:06;;;;;;;6.35;1.00;;;19.20;99.90;;;;;;5082663;28;20188;-79
2023/10/29 10:54:37;;;;;;;4.80;1.33;;;19.20;99.90;;;;;;5082475;28;20216;-79
2023/10/29 10:57:09;;;;;;;6.75;0.90;;;19.20;99.90;;;;;;5080987;28;20303;-79
2023/10/29 10:59:43;;;;;;;4.78;0.95;;;19.10;99.90;;;;;;5079111;28;20236;-79
2023/10/29 11:02:16;;;;;;;5.53;0.80;;;19.10;99.90;;;;;;5081666;28;20648;-79
2023/10/29 11:04:49;;;;;;;4.97;0.90;;;19.10;99.90;;;;;;5079332;28;20206;-79
2023/10/29 11:07:20;;;;;;;3.65;0.90;;;19.00;99.90;;;;;;5078437;28;20193;-78
2023/10/29 11:09:52;;;;;;;4.50;0.77;;;19.00;99.90;;;;;;5076098;28;20193;-78
2023/10/29 11:12:26;;;;;;;3.50;0.70;;;19.00;99.90;;;;;;5096501;28;20192;-78
2023/10/29 11:15:17;;;;;;;4.18;0.82;;;19.00;99.90;;;;;;5085975;28;20223;-81
2023/10/29 11:17:58;;;;;;;2.40;0.80;;;18.90;99.90;;;;;;5074354;28;20559;-80
2023/10/29 11:20:56;;;;;;;3.85;0.82;;;18.90;99.90;;;;;;5077215;28;20197;-80
2023/10/29 11:23:28;;;;;;;4.93;1.00;;;18.90;99.90;;;;;;5075994;28;20206;-78
2023/10/29 11:26:20;;;;;;;4.47;1.00;;;18.90;99.90;;;;;;5093474;28;20279;-79
2023/10/29 11:28:52;;;;;;;3.95;0.80;;;18.90;99.90;;;;;;5093069;28;20204;-79
2023/10/29 11:31:25;;;;;;;3.55;0.77;;;18.90;99.90;;;;;;5091062;28;20193;-79
2023/10/29 11:34:42;;;;;;;4.88;0.98;;;18.80;99.90;;;;;;5076310;28;20197;-79
2023/10/29 11:37:40;;;;;;;3.50;0.80;;;18.80;99.90;;;;;;5060223;28;20604;-78
2023/10/29 11:40:40;;;;;;;3.97;0.80;;;18.80;99.90;;;;;;5076079;28;20223;-81
2023/10/29 11:43:22;;;;;;;1.70;0.60;;;18.70;99.90;;;;;;5060731;28;20232;-79
2023/10/29 11:46:00;;;;;;;1.83;0.55;;;18.70;99.90;;;;;;5085686;28;20207;-79
2023/10/29 11:48:33;;;;;;;5.30;0.88;;;18.70;99.90;;;;;;5082353;28;20354;-80
2023/10/29 11:51:23;;;;;;;2.22;0.60;;;18.70;99.90;;;;;;5077827;28;20657;-78
2023/10/29 11:53:54;;;;;;;2.60;0.70;;;18.60;99.90;;;;;;5076247;28;20232;-78
2023/10/29 11:56:30;;;;;;;4.05;0.90;;;18.60;99.90;;;;;;5074726;28;20189;-78
2023/10/29 11:59:10;;;;;;;6.35;0.73;;;18.50;99.90;;;;;;5075212;28;20243;-79
2023/10/29 12:01:43;;;;;;;4.40;0.90;;;18.50;99.90;;;;;;5075244;28;20192;-79
2023/10/29 12:04:16;;;;;;;3.25;0.85;;;18.40;99.90;;;;;;5075241;28;20660;-78
2023/10/29 12:06:48;;;;;;;4.22;0.93;;;18.30;99.90;;;;;;5077053;28;20746;-78
2023/10/29 12:09:21;;;;;;;2.55;0.70;;;18.30;99.90;;;;;;5079084;28;20181;-79
2023/10/29 12:11:54;;;;;;;3.15;0.70;;;18.30;99.90;;;;;;5086924;28;20196;-77
2023/10/29 12:14:42;;;;;;;3.58;0.80;;;18.20;99.90;;;;;;5087284;28;20737;-78
2023/10/29 12:17:13;;;;;;;5.15;0.80;;;18.10;99.90;;;;;;5085869;28;20196;-79
2023/10/29 12:19:47;;;;;;;2.60;0.70;;;18.10;99.90;;;;;;5080181;28;20200;-80
2023/10/29 12:22:22;;;;;;;4.00;1.00;;;18.10;99.90;;;;;;5080695;28;20656;-79
2023/10/29 12:24:53;;;;;;;5.03;0.70;;;18.00;99.90;;;;;;5077480;28;20192;-80
2023/10/29 12:27:25;;;;;;;2.95;0.88;;;18.00;99.90;;;;;;5084600;28;20192;-79
2023/10/29 12:29:56;;;;;;;3.20;0.90;;;18.00;99.90;;;;;;5085940;28;20598;-79
2023/10/29 12:32:29;;;;;;;3.45;0.93;;;18.00;99.90;;;;;;5090050;28;20700;-80
2023/10/29 12:35:02;;;;;;;3.00;0.82;;;18.00;99.90;;;;;;5082895;28;20216;-80
2023/10/29 12:37:33;;;;;;;3.95;1.00;;;17.90;99.90;;;;;;5079397;28;20193;-82
2023/10/29 12:40:06;;;;;;;3.95;0.90;;;17.90;99.90;;;;;;5077850;28;20227;-80
2023/10/29 12:42:53;;;;;;;3.42;0.70;;;17.90;99.90;;;;;;5075847;28;20262;-83
2023/10/29 12:45:28;;;;;;;2.75;1.00;;;17.80;99.90;;;;;;5080325;28;20545;-79
2023/10/29 12:48:13;;;;;;;5.80;1.55;;;17.80;99.90;;;;;;5084638;28;20252;-79
2023/10/29 12:50:53;;;;;;;5.15;1.17;;;17.80;99.90;;;;;;5078083;28;20262;-79
2023/10/29 12:53:27;;;;;;;4.07;1.08;;;17.70;99.90;;;;;;5083241;28;20590;-79
2023/10/29 12:55:59;;;;;;;4.25;1.00;;;17.70;99.90;;;;;;5083385;28;20200;-81
2023/10/29 12:58:30;;;;;;;3.90;1.00;;;17.70;99.90;;;;;;5092018;28;20284;-79
2023/10/29 13:01:02;;;;;;;4.85;1.08;;;17.70;99.90;;;;;;5078672;28;20239;-78
2023/10/29 13:03:33;;;;;;;6.07;1.15;;;17.60;99.90;;;;;;5072716;28;20317;-78
2023/10/29 13:06:08;;;;;;;3.80;1.10;;;17.60;99.90;;;;;;5074090;28;20201;-80
2023/10/29 13:08:40;;;;;;;3.05;0.90;;;17.50;99.90;;;;;;5071870;28;20192;-79
2023/10/29 13:11:11;;;;;;;2.15;0.75;;;17.50;99.90;;;;;;5090096;28;20189;-79
2023/10/29 13:13:42;;;;;;;4.70;1.15;;;17.50;99.90;;;;;;5090914;28;20199;-79
2023/10/29 13:16:13;;;;;;;4.38;1.10;;;17.50;99.90;;;;;;5072380;28;20216;-79